createdAt,value
2024-01-01T00:00:41.997Z,31.80
2024-01-01T00:03:09.368Z,35.40
2024-01-01T00:05:37.954Z,37.60
2024-01-01T00:08:06.050Z,40.30
2024-01-01T00:10:33.287Z,41.20
2024-01-01T00:13:00.384Z,43.00
2024-01-01T00:15:27.744Z,41.30
2024-01-01T00:17:54.881Z,41.10
2024-01-01T00:20:22.053Z,45.50
2024-01-01T00:22:51.485Z,42.80
2024-01-01T00:25:19.563Z,48.30
2024-01-01T00:27:46.555Z,50.20
2024-01-01T00:30:13.964Z,50.20
2024-01-01T00:32:41.270Z,49.40
2024-01-01T00:35:09.049Z,49.10
2024-01-01T00:37:37.730Z,51.90
2024-01-01T00:40:07.377Z,53.80
2024-01-01T00:42:35.106Z,50.70
2024-01-01T00:45:02.087Z,46.40
2024-01-01T00:47:29.580Z,47.50
2024-01-01T00:49:56.679Z,32.80
2024-01-01T00:52:23.990Z,31.00
2024-01-01T00:54:51.134Z,35.80
2024-01-01T00:57:18.594Z,39.90
2024-01-01T00:59:45.598Z,42.90
2024-01-01T01:02:13.265Z,47.20
2024-01-01T01:04:56.191Z,46.40
2024-01-01T01:07:31.764Z,42.10
2024-01-01T01:09:58.934Z,40.70
2024-01-01T01:12:26.108Z,38.80
2024-01-01T01:14:53.553Z,37.60
2024-01-01T01:17:20.556Z,36.20
2024-01-01T01:19:47.655Z,36.60
2024-01-01T01:22:14.855Z,36.00
2024-01-01T01:24:41.970Z,32.70
2024-01-01T01:27:09.108Z,30.00
2024-01-01T01:29:36.435Z,18.70
2024-01-01T01:32:03.771Z,14.30
2024-01-01T01:34:31.237Z,11.30
2024-01-01T01:36:58.224Z,8.40
2024-01-01T01:39:25.262Z,9.30
2024-01-01T01:41:52.460Z,8.70
2024-01-01T01:44:19.449Z,8.30
2024-01-01T01:46:47.281Z,9.20
2024-01-01T01:49:14.417Z,9.80
2024-01-01T01:51:41.759Z,11.70
2024-01-01T01:54:09.155Z,13.70
2024-01-01T01:56:36.173Z,15.40
2024-01-01T01:59:05.046Z,17.30
2024-01-01T02:01:32.741Z,16.30
2024-01-01T02:03:59.781Z,10.60
2024-01-01T02:06:26.815Z,9.30
2024-01-01T02:08:54.107Z,9.20
2024-01-01T02:11:21.222Z,9.30
2024-01-01T02:13:48.419Z,8.30
2024-01-01T02:16:15.454Z,9.80
2024-01-01T02:18:44.160Z,9.10
2024-01-01T02:21:11.349Z,9.80
2024-01-01T02:23:38.775Z,9.00
2024-01-01T02:26:09.311Z,10.80
2024-01-01T02:28:36.902Z,10.20
2024-01-01T02:31:04.084Z,12.40
2024-01-01T02:33:31.667Z,11.70
2024-01-01T02:35:58.843Z,12.00
2024-01-01T02:38:25.854Z,12.30
2024-01-01T02:40:53.401Z,8.10
2024-01-01T02:43:20.462Z,6.80
2024-01-01T02:45:47.744Z,6.70
2024-01-01T02:48:14.952Z,6.60
2024-01-01T02:50:42.461Z,7.40
2024-01-01T02:53:09.564Z,8.10
2024-01-01T02:55:37.424Z,8.30
2024-01-01T02:58:05.510Z,8.20
2024-01-01T03:00:33.123Z,9.20
2024-01-01T03:03:00.185Z,9.40
2024-01-01T03:05:28.739Z,9.80
2024-01-01T03:07:56.255Z,10.10
2024-01-01T03:10:23.273Z,9.90
2024-01-01T03:12:50.269Z,10.30
2024-01-01T03:15:17.360Z,11.10
2024-01-01T03:17:46.743Z,8.30
2024-01-01T03:20:14.183Z,7.70
2024-01-01T03:22:43.329Z,8.40
2024-01-01T03:25:11.038Z,9.60
2024-01-01T03:27:38.419Z,10.80
2024-01-01T03:30:10.358Z,11.10
2024-01-01T03:32:37.754Z,11.50
2024-01-01T03:35:06.213Z,11.50
2024-01-01T03:37:33.708Z,12.40
2024-01-01T03:40:00.725Z,11.50
2024-01-01T03:42:27.743Z,12.00
2024-01-01T03:44:54.798Z,11.90
2024-01-01T03:47:23.973Z,11.40
2024-01-01T03:49:53.245Z,12.30
2024-01-01T03:52:20.452Z,12.80
2024-01-01T03:54:47.476Z,9.20
2024-01-01T03:57:14.487Z,8.50
2024-01-01T03:59:41.571Z,9.50
2024-01-01T04:02:11.707Z,10.10
2024-01-01T04:04:38.804Z,10.60
2024-01-01T04:07:05.883Z,11.30
2024-01-01T04:09:32.952Z,12.00
2024-01-01T04:11:59.916Z,11.80
2024-01-01T04:14:27.181Z,12.30
2024-01-01T04:16:54.529Z,11.20
2024-01-01T04:19:23.197Z,12.30
2024-01-01T04:21:50.102Z,11.40
2024-01-01T04:24:17.157Z,12.70
2024-01-01T04:26:44.317Z,12.40
2024-01-01T04:29:11.638Z,8.50
2024-01-01T04:31:39.265Z,8.60
2024-01-01T04:34:06.721Z,7.40
2024-01-01T04:36:34.050Z,10.10
2024-01-01T04:39:04.810Z,10.20
2024-01-01T04:41:32.444Z,11.60
2024-01-01T04:43:59.408Z,10.90
2024-01-01T04:46:26.538Z,12.00
2024-01-01T04:48:53.574Z,10.80
2024-01-01T04:51:23.834Z,10.80
2024-01-01T04:53:51.157Z,10.80
2024-01-01T04:56:18.444Z,10.70
2024-01-01T04:58:45.651Z,9.90
2024-01-01T05:01:12.920Z,9.00
2024-01-01T05:03:40.084Z,9.80
2024-01-01T05:06:07.277Z,7.50
2024-01-01T05:08:34.465Z,7.10
2024-01-01T05:11:05.946Z,6.80
2024-01-01T05:13:33.157Z,7.00
2024-01-01T05:16:00.207Z,7.80
2024-01-01T05:18:27.207Z,9.60
2024-01-01T05:20:54.296Z,10.00
2024-01-01T05:23:21.325Z,9.40
2024-01-01T05:25:48.496Z,10.00
2024-01-01T05:28:15.511Z,9.60
2024-01-01T05:30:42.631Z,9.50
2024-01-01T05:33:09.777Z,10.10
2024-01-01T05:35:38.327Z,9.90
2024-01-01T05:38:05.396Z,10.50
2024-01-01T05:40:32.739Z,7.70
2024-01-01T05:42:59.931Z,8.20
2024-01-01T05:45:26.992Z,7.70
2024-01-01T05:47:56.358Z,8.00
2024-01-01T05:52:50.730Z,8.70
2024-01-01T05:55:17.840Z,9.50
2024-01-01T05:57:44.986Z,8.30
2024-01-01T06:00:13.742Z,7.80
2024-01-01T06:02:40.932Z,8.90
2024-01-01T06:05:08.292Z,9.20
2024-01-01T06:07:35.668Z,10.20
2024-01-01T06:10:03.329Z,9.70
2024-01-01T06:12:30.360Z,9.80
2024-01-01T06:14:57.520Z,7.20
2024-01-01T06:17:24.741Z,6.40
2024-01-01T06:19:52.417Z,7.00
2024-01-01T06:22:19.650Z,7.40
2024-01-01T06:24:46.876Z,8.20
2024-01-01T06:27:13.864Z,8.90
2024-01-01T06:29:40.887Z,9.20
2024-01-01T06:32:08.144Z,9.20
2024-01-01T06:34:35.271Z,9.30
2024-01-01T06:37:02.358Z,9.30
2024-01-01T06:39:29.694Z,9.20
2024-01-01T06:41:56.945Z,9.40
2024-01-01T06:44:26.787Z,9.50
2024-01-01T06:46:54.496Z,9.10
2024-01-01T06:49:21.552Z,6.60
2024-01-01T06:51:51.854Z,6.40
2024-01-01T06:54:20.362Z,6.60
2024-01-01T06:56:47.412Z,7.50
2024-01-01T06:59:14.937Z,7.70
2024-01-01T07:01:44.194Z,8.50
2024-01-01T07:04:12.164Z,8.30
2024-01-01T07:06:39.891Z,7.40
2024-01-01T07:09:09.537Z,7.50
2024-01-01T07:11:36.653Z,7.80
2024-01-01T07:14:04.770Z,7.80
2024-01-01T07:16:32.911Z,7.20
2024-01-01T07:19:00.008Z,7.90
2024-01-01T07:21:27.751Z,7.90
2024-01-01T07:23:54.811Z,5.60
2024-01-01T07:26:21.867Z,5.00
2024-01-01T07:28:48.898Z,5.30
2024-01-01T07:31:17.177Z,5.90
2024-01-01T07:33:44.308Z,5.80
2024-01-01T07:36:14.516Z,6.00
2024-01-01T07:38:41.668Z,5.40
2024-01-01T07:41:08.677Z,6.10
2024-01-01T07:43:36.109Z,5.30
2024-01-01T07:46:03.241Z,5.00
2024-01-01T07:48:30.567Z,5.20
2024-01-01T07:50:57.795Z,5.30
2024-01-01T07:53:25.074Z,5.80
2024-01-01T07:55:52.333Z,5.30
2024-01-01T07:58:19.382Z,4.10
2024-01-01T08:00:46.663Z,4.50
2024-01-01T08:03:14.993Z,4.20
2024-01-01T08:05:42.169Z,4.00
2024-01-01T08:08:10.497Z,5.20
2024-01-01T08:10:38.357Z,5.30
2024-01-01T08:13:05.520Z,5.90
2024-01-01T08:15:32.666Z,7.00
2024-01-01T08:18:00.003Z,6.10
2024-01-01T08:20:27.611Z,6.00
2024-01-01T08:22:54.823Z,5.50
2024-01-01T08:25:21.787Z,6.50
2024-01-01T08:27:49.660Z,6.70
2024-01-01T08:30:17.412Z,4.60
2024-01-01T08:32:44.613Z,4.20
2024-01-01T08:35:13.824Z,4.40
2024-01-01T08:37:44.100Z,5.10
2024-01-01T08:40:12.248Z,5.40
2024-01-01T08:42:39.489Z,6.70
2024-01-01T08:45:07.706Z,6.00
2024-01-01T08:47:34.866Z,6.50
2024-01-01T08:50:02.386Z,6.60
2024-01-01T08:52:29.826Z,6.10
2024-01-01T08:54:57.051Z,6.00
2024-01-01T08:57:24.477Z,6.10
2024-01-01T08:59:51.585Z,6.70
2024-01-01T09:02:18.610Z,4.70
2024-01-01T09:04:45.963Z,4.80
2024-01-01T09:07:13.291Z,4.60
2024-01-01T09:09:40.377Z,4.70
2024-01-01T09:12:08.506Z,5.30
2024-01-01T09:14:36.498Z,5.40
2024-01-01T09:17:05.305Z,5.60
2024-01-01T09:19:32.421Z,6.10
2024-01-01T09:21:59.614Z,7.10
2024-01-01T09:24:26.794Z,6.80
2024-01-01T09:26:53.687Z,6.40
2024-01-01T09:29:20.829Z,6.40
2024-01-01T09:31:48.219Z,6.50
2024-01-01T09:34:15.355Z,7.10
2024-01-01T09:36:53.282Z,5.10
2024-01-01T09:39:27.699Z,4.50
2024-01-01T09:41:54.925Z,4.50
2024-01-01T09:44:22.158Z,4.70
2024-01-01T09:46:49.528Z,5.90
2024-01-01T09:49:16.802Z,5.50
2024-01-01T09:51:43.923Z,6.60
2024-01-01T09:54:10.890Z,6.20
2024-01-01T09:56:38.145Z,5.30
2024-01-01T09:59:05.129Z,6.30
2024-01-01T10:01:34.571Z,7.00
2024-01-01T10:04:05.876Z,6.60
2024-01-01T10:06:34.803Z,6.30
2024-01-01T10:09:09.975Z,10.00
2024-01-01T10:11:42.801Z,5.50
2024-01-01T10:14:10.848Z,5.20
2024-01-01T10:16:39.762Z,5.50
2024-01-01T10:19:08.127Z,5.70
2024-01-01T10:21:36.587Z,6.80
2024-01-01T10:24:26.059Z,6.80
2024-01-01T10:26:59.463Z,6.80
2024-01-01T10:29:26.889Z,6.10
2024-01-01T10:31:54.273Z,6.20
2024-01-01T10:34:21.629Z,6.30
2024-01-01T10:36:48.608Z,6.40
2024-01-01T10:39:15.910Z,6.90
2024-01-01T10:41:42.934Z,6.40
2024-01-01T10:44:10.251Z,6.20
2024-01-01T10:46:40.907Z,5.70
2024-01-01T10:49:10.244Z,5.80
2024-01-01T10:52:05.207Z,5.90
2024-01-01T10:54:58.713Z,7.20
2024-01-01T10:57:51.324Z,6.70
2024-01-01T11:00:30.717Z,7.20
2024-01-01T11:02:57.903Z,8.40
2024-01-01T11:05:33.291Z,7.70
2024-01-01T11:08:01.631Z,7.80
2024-01-01T11:10:36.277Z,9.30
2024-01-01T11:13:07.378Z,12.80
2024-01-01T11:15:41.639Z,8.00
2024-01-01T11:18:16.644Z,8.00
2024-01-01T11:20:50.996Z,8.60
2024-01-01T11:23:40.975Z,7.50
2024-01-01T11:26:28.454Z,7.30
2024-01-01T11:28:56.973Z,6.50
2024-01-01T11:31:25.486Z,7.70
2024-01-01T11:34:16.972Z,9.20
2024-01-01T11:36:49.393Z,14.30
2024-01-01T11:39:17.655Z,9.80
2024-01-01T11:41:44.767Z,8.70
2024-01-01T11:44:12.984Z,8.80
2024-01-01T11:46:40.354Z,12.20
2024-01-01T11:49:08.773Z,8.90
2024-01-01T11:51:50.674Z,8.50
2024-01-01T11:54:17.991Z,9.50
2024-01-01T11:56:49.851Z,7.60
2024-01-01T11:59:17.491Z,6.60
2024-01-01T12:01:45.359Z,6.70
2024-01-01T12:04:12.425Z,5.80
2024-01-01T12:06:40.293Z,7.00
2024-01-01T12:09:08.076Z,8.40
2024-01-01T12:11:35.020Z,7.00
2024-01-01T12:14:03.115Z,7.50
2024-01-01T12:16:31.376Z,7.90
2024-01-01T12:18:59.035Z,8.00
2024-01-01T12:21:27.342Z,8.40
2024-01-01T12:24:04.840Z,8.70
2024-01-01T12:26:35.844Z,7.90
2024-01-01T12:29:09.928Z,9.60
2024-01-01T12:31:40.817Z,8.60
2024-01-01T12:34:09.385Z,9.40
2024-01-01T12:36:36.722Z,8.20
2024-01-01T12:39:04.492Z,7.10
2024-01-01T12:41:32.237Z,6.50
2024-01-01T12:44:00.129Z,9.10
2024-01-01T12:46:27.722Z,9.80
2024-01-01T12:48:54.961Z,10.30
2024-01-01T12:51:25.763Z,8.50
2024-01-01T12:53:57.541Z,8.20
2024-01-01T12:56:28.148Z,8.80
2024-01-01T12:58:55.615Z,9.40
2024-01-01T13:01:23.864Z,8.90
2024-01-01T13:03:50.962Z,9.50
2024-01-01T13:06:19.236Z,10.30
2024-01-01T13:08:48.463Z,8.90
2024-01-01T13:11:15.495Z,9.20
2024-01-01T13:13:43.411Z,9.10
2024-01-01T13:16:10.756Z,8.20
2024-01-01T13:18:37.839Z,6.90
2024-01-01T13:21:05.271Z,6.90
2024-01-01T13:23:32.871Z,8.40
2024-01-01T13:26:00.229Z,8.30
2024-01-01T13:28:27.430Z,9.40
2024-01-01T13:30:54.816Z,8.90
2024-01-01T13:33:22.640Z,8.60
2024-01-01T13:35:50.177Z,9.60
2024-01-01T13:38:17.413Z,10.30
2024-01-01T13:40:44.553Z,9.90
2024-01-01T13:43:11.770Z,11.90
2024-01-01T13:45:42.081Z,12.70
2024-01-01T13:48:11.801Z,12.40
2024-01-01T13:50:40.609Z,13.30
2024-01-01T13:53:08.172Z,10.90
2024-01-01T13:55:35.775Z,7.60
2024-01-01T13:58:04.205Z,7.60
2024-01-01T14:00:32.030Z,7.60
2024-01-01T14:02:59.825Z,7.00
2024-01-01T14:05:28.791Z,9.60
2024-01-01T14:07:56.126Z,8.80
2024-01-01T14:10:23.389Z,9.70
2024-01-01T14:12:50.573Z,9.40
2024-01-01T14:15:22.595Z,9.50
2024-01-01T14:17:53.445Z,8.80
2024-01-01T14:20:24.064Z,11.40
2024-01-01T14:22:51.263Z,14.70
2024-01-01T14:25:19.785Z,12.90
2024-01-01T14:27:47.518Z,12.90
2024-01-01T14:30:17.804Z,10.00
2024-01-01T14:32:45.065Z,8.20
2024-01-01T14:35:13.642Z,7.70
2024-01-01T14:37:40.820Z,7.70
2024-01-01T14:40:09.665Z,8.20
2024-01-01T14:42:36.933Z,9.00
2024-01-01T14:45:05.024Z,9.10
2024-01-01T14:47:32.345Z,9.60
2024-01-01T14:49:59.646Z,9.10
2024-01-01T14:52:26.828Z,9.40
2024-01-01T14:54:53.791Z,8.20
2024-01-01T14:57:20.961Z,8.80
2024-01-01T14:59:47.980Z,9.20
2024-01-01T15:02:14.959Z,11.10
2024-01-01T15:04:43.334Z,13.20
2024-01-01T15:07:10.990Z,13.30
2024-01-01T15:09:41.776Z,10.30
2024-01-01T15:12:09.416Z,7.00
2024-01-01T15:14:36.771Z,7.90
2024-01-01T15:17:06.858Z,7.70
2024-01-01T15:19:35.215Z,10.20
2024-01-01T15:22:02.333Z,8.50
2024-01-01T15:24:29.592Z,13.40
2024-01-01T15:26:56.874Z,12.20
2024-01-01T15:30:12.580Z,10.70
2024-01-01T15:32:39.994Z,8.80
2024-01-01T15:35:08.701Z,11.50
2024-01-01T15:40:05.544Z,11.80
2024-01-01T15:42:32.805Z,12.50
2024-01-01T15:44:59.846Z,11.40
2024-01-01T15:47:26.929Z,10.00
2024-01-01T15:49:53.894Z,12.40
2024-01-01T15:52:21.064Z,10.10
2024-01-01T15:54:48.222Z,10.40
2024-01-01T15:57:15.385Z,15.70
2024-01-01T15:59:42.856Z,14.30
2024-01-01T16:02:10.223Z,13.90
2024-01-01T16:04:38.948Z,12.30
2024-01-01T16:07:05.987Z,12.00
2024-01-01T16:09:34.326Z,12.70
2024-01-01T16:12:01.427Z,13.10
2024-01-01T16:14:28.468Z,11.60
2024-01-01T16:16:56.909Z,11.80
2024-01-01T16:19:33.225Z,11.40
2024-01-01T16:22:01.992Z,8.30
2024-01-01T16:24:29.763Z,8.10
2024-01-01T16:26:56.935Z,8.30
2024-01-01T16:29:24.238Z,8.60
2024-01-01T16:31:51.503Z,9.20
2024-01-01T16:34:18.804Z,10.00
2024-01-01T16:36:53.557Z,11.40
2024-01-01T16:39:20.991Z,9.10
2024-01-01T16:41:48.188Z,9.40
2024-01-01T16:44:15.636Z,11.30
2024-01-01T16:46:42.818Z,9.80
2024-01-01T16:49:10.542Z,11.40
2024-01-01T16:51:42.036Z,8.80
2024-01-01T16:54:09.013Z,8.20
2024-01-01T16:56:36.209Z,8.70
2024-01-01T16:59:04.471Z,8.00
2024-01-01T17:01:31.647Z,9.20
2024-01-01T17:03:58.697Z,10.30
2024-01-01T17:06:25.935Z,10.20
2024-01-01T17:08:53.116Z,9.00
2024-01-01T17:11:20.348Z,9.80
2024-01-01T17:13:47.707Z,10.30
2024-01-01T17:16:15.449Z,9.60
2024-01-01T17:18:44.144Z,9.90
2024-01-01T17:21:18.282Z,11.20
2024-01-01T17:23:47.076Z,9.40
2024-01-01T17:26:14.232Z,8.30
2024-01-01T17:28:41.377Z,8.50
2024-01-01T17:31:08.440Z,7.80
2024-01-01T17:33:35.467Z,8.70
2024-01-01T17:36:02.539Z,9.80
2024-01-01T17:38:30.053Z,10.10
2024-01-01T17:41:02.850Z,11.20
2024-01-01T17:43:38.361Z,11.20
2024-01-01T17:46:05.842Z,11.60
2024-01-01T17:48:36.084Z,11.50
2024-01-01T17:51:10.897Z,11.00
2024-01-01T17:53:43.994Z,9.40
2024-01-01T17:56:12.475Z,8.80
2024-01-01T17:58:40.297Z,10.10
2024-01-01T18:01:07.511Z,10.30
2024-01-01T18:03:34.981Z,9.90
2024-01-01T18:06:06.754Z,11.80
2024-01-01T18:08:34.218Z,10.10
2024-01-01T18:11:03.377Z,10.20
2024-01-01T18:13:31.309Z,10.20
2024-01-01T18:16:00.483Z,10.20
2024-01-01T18:18:27.629Z,9.50
2024-01-01T18:20:54.807Z,9.80
2024-01-01T18:23:22.035Z,10.00
2024-01-01T18:25:50.380Z,9.30
2024-01-01T18:28:17.903Z,8.10
2024-01-01T18:30:46.142Z,9.60
2024-01-01T18:33:13.999Z,9.40
2024-01-01T18:35:42.381Z,9.60
2024-01-01T18:38:09.563Z,9.70
2024-01-01T18:40:37.087Z,9.20
2024-01-01T18:43:04.914Z,9.20
2024-01-01T18:45:31.963Z,10.70
2024-01-01T18:47:59.129Z,8.20
2024-01-01T18:50:27.123Z,7.80
2024-01-01T18:52:54.511Z,8.70
2024-01-01T18:55:21.648Z,6.90
2024-01-01T18:57:48.568Z,8.80
2024-01-01T19:00:17.108Z,8.80
2024-01-01T19:02:46.695Z,9.50
2024-01-01T19:05:13.878Z,9.50
2024-01-01T19:07:41.004Z,9.60
2024-01-01T19:10:08.610Z,9.50
2024-01-01T19:12:36.063Z,8.20
2024-01-01T19:15:04.660Z,6.60
2024-01-01T19:17:32.585Z,6.90
2024-01-01T19:20:00.234Z,7.60
2024-01-01T19:22:27.534Z,8.00
2024-01-01T19:24:56.655Z,9.00
2024-01-01T19:27:24.312Z,7.80
2024-01-01T19:29:51.526Z,8.00
2024-01-01T19:32:18.723Z,8.90
2024-01-01T19:34:45.648Z,8.60
2024-01-01T19:37:13.703Z,7.70
2024-01-01T19:39:40.885Z,7.00
2024-01-01T19:42:08.823Z,7.10
2024-01-01T19:44:35.887Z,6.00
2024-01-01T19:47:04.181Z,7.20
2024-01-01T19:49:31.600Z,8.10
2024-01-01T19:51:58.740Z,7.50
2024-01-01T19:54:27.630Z,7.40
2024-01-01T19:56:54.600Z,7.90
2024-01-01T19:59:21.572Z,7.30
2024-01-01T20:01:49.135Z,6.30
2024-01-01T20:04:16.439Z,7.40
2024-01-01T20:06:44.524Z,6.80
2024-01-01T20:09:11.852Z,9.20
2024-01-01T20:11:39.024Z,9.40
2024-01-01T20:14:06.069Z,10.30
2024-01-01T20:16:33.355Z,10.10
2024-01-01T20:19:00.604Z,9.30
2024-01-01T20:21:30.339Z,10.30
2024-01-01T20:23:57.652Z,9.00
2024-01-01T20:26:26.237Z,17.10
2024-01-01T20:28:58.490Z,44.20
2024-01-01T20:31:27.394Z,35.50
2024-01-01T20:33:58.134Z,32.50
2024-01-01T20:36:26.112Z,23.70
2024-01-01T20:38:54.703Z,13.70
2024-01-01T20:41:25.225Z,13.80
2024-01-01T20:43:53.323Z,13.60
2024-01-01T20:46:20.349Z,14.30
2024-01-01T20:48:48.244Z,11.60
2024-01-01T20:51:15.567Z,18.20
2024-01-01T20:53:42.994Z,11.20
2024-01-01T20:56:10.783Z,9.80
2024-01-01T20:58:38.548Z,10.30
2024-01-01T21:01:06.387Z,9.40
2024-01-01T21:03:37.776Z,8.90
2024-01-01T21:06:11.494Z,7.60
2024-01-01T21:08:39.385Z,8.00
2024-01-01T21:11:08.261Z,7.60
2024-01-01T21:13:38.989Z,7.10
2024-01-01T21:16:07.004Z,7.50
2024-01-01T21:18:34.502Z,6.90
2024-01-01T21:21:01.906Z,8.00
2024-01-01T21:23:29.285Z,8.50
2024-01-01T21:25:56.902Z,8.10
2024-01-01T21:28:24.475Z,8.10
2024-01-01T21:30:51.912Z,8.40
2024-01-01T21:33:19.295Z,7.60
2024-01-01T21:35:46.413Z,7.20
2024-01-01T21:38:13.443Z,7.20
2024-01-01T21:40:40.533Z,6.70
2024-01-01T21:43:07.811Z,7.60
2024-01-01T21:45:35.218Z,8.10
2024-01-01T21:48:03.998Z,7.70
2024-01-01T21:50:34.311Z,7.80
2024-01-01T21:53:02.113Z,8.90
2024-01-01T21:55:29.563Z,7.30
2024-01-01T21:57:56.780Z,7.80
2024-01-01T22:00:24.002Z,8.00
2024-01-01T22:02:51.656Z,7.70
2024-01-01T22:05:19.312Z,7.80
2024-01-01T22:07:47.586Z,10.50
2024-01-01T22:10:16.210Z,8.70
2024-01-01T22:12:43.210Z,8.60
2024-01-01T22:15:17.414Z,9.20
2024-01-01T22:17:46.746Z,8.50
2024-01-01T22:20:14.266Z,7.60
2024-01-01T22:22:41.611Z,7.90
2024-01-01T22:25:09.568Z,6.90
2024-01-01T22:27:36.593Z,8.50
2024-01-01T22:30:04.375Z,8.30
2024-01-01T22:32:32.032Z,7.60
2024-01-01T22:34:59.483Z,9.10
2024-01-01T22:37:26.628Z,8.70
2024-01-01T22:39:53.748Z,8.80
2024-01-01T22:42:21.035Z,7.20
2024-01-01T22:44:48.006Z,7.30
2024-01-01T22:47:15.475Z,7.70
2024-01-01T22:49:42.934Z,8.50
2024-01-01T22:52:09.927Z,9.10
2024-01-01T22:54:37.138Z,9.40
2024-01-01T22:57:06.723Z,8.80
2024-01-01T22:59:33.893Z,9.00
2024-01-01T23:02:01.593Z,9.40
2024-01-01T23:04:28.742Z,8.10
2024-01-01T23:06:55.692Z,8.00
2024-01-01T23:09:22.666Z,8.10
2024-01-01T23:11:49.706Z,8.80
2024-01-01T23:14:16.906Z,8.60
2024-01-01T23:16:43.982Z,9.30
2024-01-01T23:19:11.352Z,9.40
2024-01-01T23:21:38.485Z,9.50
2024-01-01T23:24:05.902Z,9.00
2024-01-01T23:26:33.343Z,8.60
2024-01-01T23:29:01.661Z,8.10
2024-01-01T23:31:29.021Z,7.50
2024-01-01T23:34:04.766Z,8.40
2024-01-01T23:36:39.560Z,8.90
2024-01-01T23:39:06.677Z,8.30
2024-01-01T23:41:33.712Z,8.80
2024-01-01T23:44:00.864Z,9.10
2024-01-01T23:46:28.008Z,7.40
2024-01-01T23:48:55.092Z,8.10
2024-01-01T23:51:22.395Z,6.80
2024-01-01T23:53:49.438Z,6.90
2024-01-01T23:56:17.684Z,8.00
2024-01-01T23:58:44.841Z,7.60
